»·PEaware :: FFT258 KDEN-KABQ

FFT258 :: KDEN-KABQ

FLIGHT INFORMATION

Flight Status: Arrived
Operator:
Frontier Airlines
More flights by this operator :: More flights under this callsign
Pilot: Brad M. (22842)
Aircraft: AIRBUS A319
(A319)
More flights by this aircraft type
Origin: KDEN Denver Intl
United States
Destination: KABQ Albuquerque Intl Sunport
United States
More flights between these airports :: More routes between these airports
Route: SPAZZ4 ZAPAA DATME SNDIA3
File this flight plan on PilotEdge
Remarks:
Altitude:
(Current/Filed)
30,000ft
Speed:
(Current/Filed)
459kts
Departed: 24-Sep-19 02:41 PM
Arrived: 24-Sep-19 03:31 PM
Distance/Time
Traveled:
303nm/0:50
Distance/Time
To Go:
Arrived

Flight Plot

Page will automatically refresh every two minutes.

Flight plan parsing failed; only flown route is shown


Map Options




Map Legend


Flown Route
Filed Route
Departure Airport
Arrival Airport
Navaid (VOR, NDB)
Fix

Horizontal Profiles

Position Reports

Time Latitude Longitude Heading Altitude Ground
Speed
24-Sep-19 13:58 39.853360 -104.672026 0 5379ft 0kts
24-Sep-19 13:59 39.853360 -104.672026 0 5379ft 0kts
24-Sep-19 14:00 39.853360 -104.672026 0 5379ft 0kts
24-Sep-19 14:01 39.853360 -104.672026 0 5379ft 0kts
24-Sep-19 14:02 39.853360 -104.672026 0 5379ft 0kts
24-Sep-19 14:03 39.853360 -104.672026 0 5379ft 0kts
24-Sep-19 14:04 39.853360 -104.672026 0 5379ft 0kts
24-Sep-19 14:05 39.853360 -104.672026 0 5379ft 0kts
24-Sep-19 14:06 39.853360 -104.672026 0 5379ft 0kts
24-Sep-19 14:07 39.853360 -104.672026 0 5379ft 0kts
24-Sep-19 14:08 39.853360 -104.672026 0 5379ft 0kts
24-Sep-19 14:09 39.853360 -104.672026 0 5379ft 0kts
24-Sep-19 14:10 39.853360 -104.672026 0 5379ft 0kts
24-Sep-19 14:11 39.853360 -104.672026 0 5379ft 0kts
24-Sep-19 14:12 39.853360 -104.672026 0 5379ft 0kts
24-Sep-19 14:13 39.853360 -104.672026 0 5379ft 0kts
24-Sep-19 14:14 39.853360 -104.672026 0 5379ft 0kts
24-Sep-19 14:15 39.853360 -104.672026 0 5379ft 0kts
24-Sep-19 14:16 39.853360 -104.672026 0 5379ft 0kts
24-Sep-19 14:17 39.853360 -104.672026 0 5379ft 0kts
24-Sep-19 14:18 39.853360 -104.672026 0 5379ft 0kts
24-Sep-19 14:19 39.853360 -104.672026 0 5379ft 0kts
24-Sep-19 14:20 39.853360 -104.672026 0 5379ft 0kts
24-Sep-19 14:21 39.853360 -104.672026 0 5379ft 0kts
24-Sep-19 14:22 39.853360 -104.672026 0 5379ft 0kts
24-Sep-19 14:23 39.853360 -104.672026 0 5379ft 0kts
24-Sep-19 14:24 39.853360 -104.672026 0 5379ft 0kts
24-Sep-19 14:25 39.853360 -104.672026 0 5379ft 0kts
24-Sep-19 14:26 39.853360 -104.672026 0 5379ft 0kts
24-Sep-19 14:27 39.853360 -104.672026 0 5380ft 0kts
24-Sep-19 14:28 39.853012 -104.672028 359 5380ft 0kts
24-Sep-19 14:29 39.852761 -104.671661 269 5380ft 0kts
24-Sep-19 14:30 39.852761 -104.671662 269 5379ft 0kts
24-Sep-19 14:31 39.852758 -104.672024 269 5380ft 5kts
24-Sep-19 14:32 39.852797 -104.676071 271 5380ft 14kts
24-Sep-19 14:33 39.852878 -104.681330 281 5379ft 4kts
24-Sep-19 14:34 39.853068 -104.682974 268 5375ft 0kts
24-Sep-19 14:35 39.852351 -104.684004 179 5373ft 13kts
24-Sep-19 14:36 39.848138 -104.684068 180 5370ft 17kts
24-Sep-19 14:37 39.842847 -104.684141 181 5366ft 18kts
24-Sep-19 14:38 39.841854 -104.684155 181 5366ft 0kts
24-Sep-19 14:39 39.840685 -104.685650 271 5366ft 34kts
24-Sep-19 14:40 39.840957 -104.735210 272 5885ft 190kts
24-Sep-19 14:41 39.828430 -104.804115 253 7870ft 217kts
24-Sep-19 14:42 39.798715 -104.887445 228 9423ft 291kts
24-Sep-19 14:43 39.721277 -104.927011 180 11638ft 341kts
24-Sep-19 14:44 39.617759 -104.898578 159 12659ft 418kts
24-Sep-19 14:45 39.511470 -104.827097 154 15164ft 439kts
24-Sep-19 14:46 39.396433 -104.768122 166 17485ft 453kts
24-Sep-19 14:47 39.269731 -104.751379 178 19621ft 464kts
24-Sep-19 14:48 39.139145 -104.743367 178 21578ft 477kts
24-Sep-19 14:49 39.007446 -104.760666 203 23324ft 483kts
24-Sep-19 14:50 38.885554 -104.836321 206 25120ft 488kts
24-Sep-19 14:51 38.764436 -104.911051 207 27329ft 479kts
24-Sep-19 14:52 38.647950 -104.990400 210 29201ft 471kts
24-Sep-19 14:53 38.533320 -105.070141 210 30028ft 472kts
24-Sep-19 14:54 38.416371 -105.150741 210 30010ft 479kts
24-Sep-19 14:55 38.299155 -105.231165 209 30032ft 478kts
24-Sep-19 14:56 38.182367 -105.310993 209 30114ft 477kts
24-Sep-19 14:57 38.065498 -105.390580 209 30143ft 476kts
24-Sep-19 14:58 37.948921 -105.469649 210 30148ft 471kts
24-Sep-19 14:59 37.834856 -105.546583 209 30163ft 471kts
24-Sep-19 15:00 37.718705 -105.622537 206 30232ft 471kts
24-Sep-19 15:02 37.596066 -105.682253 202 30261ft 471kts
24-Sep-19 15:03 37.473565 -105.740301 202 30267ft 470kts
24-Sep-19 15:04 37.351260 -105.797721 202 30270ft 469kts
24-Sep-19 15:05 37.229216 -105.854786 202 30266ft 467kts
24-Sep-19 15:06 37.107920 -105.911287 202 30260ft 466kts
24-Sep-19 15:07 36.987025 -105.967421 202 30270ft 464kts
24-Sep-19 15:08 36.867936 -106.022523 202 30285ft 466kts
24-Sep-19 15:09 36.746110 -106.078454 202 30314ft 464kts
24-Sep-19 15:10 36.625140 -106.133725 202 30330ft 462kts
24-Sep-19 15:11 36.504514 -106.187422 202 30285ft 460kts
24-Sep-19 15:12 36.384802 -106.240622 202 29599ft 449kts
24-Sep-19 15:13 36.268473 -106.292066 202 27520ft 446kts
24-Sep-19 15:14 36.150407 -106.344044 201 23347ft 454kts
24-Sep-19 15:15 36.034136 -106.394458 201 20903ft 429kts
24-Sep-19 15:16 35.923312 -106.442100 201 20812ft 400kts
24-Sep-19 15:17 35.823941 -106.482997 200 19504ft 362kts
24-Sep-19 15:18 35.731431 -106.520650 199 17898ft 340kts
24-Sep-19 15:19 35.643476 -106.556451 200 16287ft 326kts
24-Sep-19 15:19 35.573295 -106.587671 205 14964ft 319kts
24-Sep-19 15:20 35.493839 -106.630475 205 14043ft 294kts
24-Sep-19 15:22 35.406322 -106.677831 205 12470ft 293kts
24-Sep-19 15:23 35.332154 -106.717782 205 11070ft 290kts
24-Sep-19 15:23 35.271213 -106.751475 207 9968ft 285kts
24-Sep-19 15:25 35.185273 -106.774143 176 8586ft 255kts
24-Sep-19 15:26 35.123725 -106.767822 170 7432ft 182kts
24-Sep-19 15:26 35.087215 -106.744552 137 7142ft 173kts
24-Sep-19 15:27 35.057916 -106.705582 129 6428ft 152kts
24-Sep-19 15:28 35.044237 -106.659005 86 5863ft 148kts
24-Sep-19 15:29 35.044273 -106.609079 89 5318ft 123kts
24-Sep-19 15:30 35.045851 -106.596341 281 5318ft 9kts
24-Sep-19 15:31 35.045733 -106.601177 269 5318ft 17kts
24-Sep-19 15:32 35.045802 -106.606943 253 5318ft 11kts
24-Sep-19 15:33 35.045827 -106.611673 271 5318ft 17kts
24-Sep-19 15:34 35.048242 -106.613146 324 5318ft 9kts
24-Sep-19 15:35 35.047863 -106.614335 207 5318ft 0kts
24-Sep-19 15:36 35.047863 -106.614335 207 5318ft 0kts
24-Sep-19 15:37 35.047863 -106.614335 207 5318ft 0kts

Navigation Log

Ident Type
Flight plan parsing failed, navigation log unavailable